Time;durP1;ratioP1;P1;durP2;ratioP2;P2;SDS_P1;SDS_P2;PMS_P1;PMS_P2;Temp;Humidity;BMP_temperature;BMP_pressure;BME280_temperature;BME280_humidity;BME280_pressure;Samples;Min_cycle;Max_cycle;Signal;HPM_P1;HPM_P2
2022/04/02 00:00:06;;;;;;;;;;;5.60;34.40;;;3.68;34.29;100660.69;8283548;28;19928;-80
2022/04/02 00:04:33;;;;;;;;;;;5.60;34.50;;;3.67;34.23;100664.16;8281798;28;20004;-80
2022/04/02 00:08:55;;;;;;;;;;;5.50;34.40;;;3.72;34.41;100664.03;8291035;28;20008;-80
2022/04/02 00:13:17;;;;;;;;;;;5.50;34.50;;;3.73;34.20;100668.31;8274418;28;20016;-80
2022/04/02 00:17:39;;;;;;;;;;;5.40;34.20;;;3.63;34.06;100651.38;8276061;28;19996;-80
2022/04/02 00:22:01;;;;;;;;;;;5.50;33.00;;;3.57;34.59;100649.81;8274644;28;19944;-80
2022/04/02 00:26:23;;;;;;;;;;;5.50;33.80;;;3.46;34.69;100638.94;8281007;28;20458;-80
2022/04/02 00:30:45;;;;;;;;;;;5.50;34.10;;;3.52;34.38;100659.41;8279923;28;19924;-80
2022/04/02 00:35:08;;;;;;;;;;;5.50;34.10;;;3.44;34.45;100651.03;8280220;28;20016;-80
2022/04/02 00:39:30;;;;;;;;;;;5.30;33.90;;;3.50;34.10;100662.03;8281273;28;20016;-80
2022/04/02 00:44:12;;;;;;;;;;;5.40;33.60;;;3.62;34.09;100673.78;8282496;28;20473;-80
2022/04/02 00:48:34;;;;;;;;;;;5.50;33.70;;;3.41;34.29;100643.38;8284221;28;20006;-80
2022/04/02 00:52:56;;;;;;;;;;;5.40;34.60;;;3.59;34.42;100676.41;8294694;28;20027;-80
2022/04/02 00:57:19;;;;;;;;;;;5.40;33.70;;;3.26;34.35;100613.66;8272706;28;20004;-80
2022/04/02 01:01:43;;;;;;;;;;;5.40;34.00;;;3.58;34.46;100674.72;8278829;28;19965;-81
2022/04/02 01:06:05;;;;;;;;;;;5.00;33.50;;;3.53;34.43;100671.44;8281505;28;19922;-80
2022/04/02 01:10:34;;;;;;;;;;;5.40;33.40;;;3.46;34.46;100659.59;8272141;28;20008;-80
2022/04/02 01:14:56;;;;;;;;;;;5.30;33.40;;;3.59;34.39;100681.56;8268531;28;20454;-80
2022/04/02 01:19:28;;;;;;;;;;;5.40;33.40;;;3.57;34.22;100678.22;8278620;28;19917;-80
2022/04/02 01:24:08;;;;;;;;;;;5.40;33.40;;;3.42;34.42;100653.63;8262230;28;20033;-80
2022/04/02 01:28:33;;;;;;;;;;;5.40;33.70;;;3.52;34.03;100678.31;8280389;28;20008;-80
2022/04/02 01:32:57;;;;;;;;;;;5.50;33.60;;;3.53;34.34;100687.75;8282941;28;20004;-81
2022/04/02 01:37:19;;;;;;;;;;;5.40;33.50;;;3.44;34.63;100682.00;8272339;28;20322;-81
2022/04/02 01:41:50;;;;;;;;;;;5.40;33.60;;;3.52;34.56;100686.06;8268042;28;19926;-81
2022/04/02 01:46:18;;;;;;;;;;;5.30;33.60;;;3.54;34.60;100701.53;8252842;28;19917;-80
2022/04/02 01:50:43;;;;;;;;;;;5.40;33.90;;;3.36;34.46;100676.19;8267670;28;20378;-80
2022/04/02 01:55:06;;;;;;;;;;;5.30;33.90;;;3.36;34.30;100673.63;8281693;28;20001;-80
2022/04/02 01:59:29;;;;;;;;;;;5.30;34.00;;;3.23;34.49;100655.03;8264899;28;20460;-81
2022/04/02 02:03:51;;;;;;;;;;;5.20;33.90;;;3.21;34.11;100655.03;8267950;28;19922;-81
2022/04/02 02:08:13;;;;;;;;;;;5.10;33.70;;;3.38;34.52;100683.03;8269741;28;20384;-81
2022/04/02 02:13:04;;;;;;;;;;;5.30;33.90;;;3.37;34.57;100685.63;8249255;28;19917;-80
2022/04/02 02:17:38;;;;;;;;;;;5.10;34.80;;;3.31;34.93;100690.06;8273098;28;20008;-81
2022/04/02 02:22:00;;;;;;;;;;;5.20;34.30;;;3.24;34.76;100679.94;8271622;28;19921;-81
2022/04/02 02:26:22;;;;;;;;;;;5.00;34.90;;;3.15;34.83;100664.69;8283445;28;20357;-81
2022/04/02 02:30:44;;;;;;;;;;;5.10;34.00;;;3.09;34.81;100663.13;8285118;28;19917;-80
2022/04/02 02:39:52;;;;;;;;;;;5.00;34.60;;;3.20;34.59;100699.81;8271982;28;20004;-80
2022/04/02 02:44:18;;;;;;;;;;;5.00;34.60;;;3.16;34.75;100689.59;8282901;28;20353;-80
2022/04/02 02:48:46;;;;;;;;;;;5.00;35.20;;;3.06;35.07;100687.25;8269444;28;20306;-80
2022/04/02 02:53:11;;;;;;;;;;;5.00;35.00;;;3.05;35.11;100679.53;8268684;28;19954;-80
2022/04/02 02:57:41;;;;;;;;;;;4.90;34.70;;;3.03;35.04;100676.19;8267136;28;20008;-81
2022/04/02 03:02:03;;;;;;;;;;;4.90;34.80;;;2.94;34.78;100660.91;8274162;28;20013;-81
2022/04/02 03:06:26;;;;;;;;;;;5.00;34.70;;;3.10;35.21;100686.28;8267132;28;20012;-81
2022/04/02 03:10:48;;;;;;;;;;;5.30;35.00;;;2.95;35.14;100660.88;8282697;28;19996;-81
2022/04/02 03:15:18;;;;;;;;;;;4.60;35.00;;;3.03;35.16;100684.75;8264821;28;19917;-80
2022/04/02 03:19:40;;;;;;;;;;;4.90;35.00;;;2.97;34.94;100674.59;8282756;28;20008;-81
2022/04/02 03:24:03;;;;;;;;;;;4.90;35.30;;;2.87;35.00;100660.22;8259973;28;20404;-80
2022/04/02 03:28:29;;;;;;;;;;;4.90;34.80;;;2.98;35.02;100676.28;8268762;28;20023;-81
2022/04/02 03:32:52;;;;;;;;;;;4.90;35.30;;;2.96;35.14;100687.53;8281659;28;20026;-80
2022/04/02 03:37:14;;;;;;;;;;;4.90;35.00;;;2.93;35.21;100688.44;8280818;28;20381;-81
2022/04/02 03:41:35;;;;;;;;;;;4.90;35.30;;;2.87;35.02;100681.69;8274650;28;20012;-80
2022/04/02 03:50:41;;;;;;;;;;;4.90;35.60;;;2.98;35.21;100704.66;8261561;28;20001;-80
2022/04/02 03:55:09;;;;;;;;;;;4.90;35.50;;;2.84;35.12;100686.94;8277520;28;19921;-80
2022/04/02 03:59:32;;;;;;;;;;;4.90;36.20;;;2.95;35.33;100703.91;8279335;28;20005;-80
2022/04/02 04:03:55;;;;;;;;;;;4.80;35.80;;;2.94;35.49;100707.34;8260493;28;19944;-80
2022/04/02 04:08:17;;;;;;;;;;;4.80;36.30;;;2.71;35.38;100679.53;8279877;28;20442;-80
2022/04/02 04:12:41;;;;;;;;;;;4.80;35.20;;;2.97;35.33;100727.91;8255271;28;20051;-80
2022/04/02 04:17:04;;;;;;;;;;;4.80;35.50;;;2.86;35.38;100705.81;8278240;28;20336;-80
2022/04/02 04:21:27;;;;;;;;;;;4.80;35.30;;;2.93;35.69;100729.72;8259964;28;19928;-81
2022/04/02 04:25:50;;;;;;;;;;;4.80;35.50;;;2.88;35.61;100723.81;8262874;28;20004;-81
2022/04/02 04:30:14;;;;;;;;;;;4.80;35.70;;;2.92;35.23;100733.19;8266651;28;20024;-80
2022/04/02 04:34:37;;;;;;;;;;;4.80;35.60;;;2.90;35.63;100729.78;8294156;28;20000;-80
2022/04/02 04:38:59;;;;;;;;;;;4.80;35.40;;;2.88;35.36;100723.81;8264625;28;19932;-81
2022/04/02 04:43:21;;;;;;;;;;;4.80;35.50;;;2.87;35.60;100738.44;8278461;28;19944;-80
2022/04/02 04:47:45;;;;;;;;;;;4.80;35.50;;;2.82;35.60;100726.53;8274044;28;20113;-80
2022/04/02 04:52:09;;;;;;;;;;;4.80;35.10;;;2.98;35.53;100761.41;8272397;28;20016;-80
2022/04/02 04:56:32;;;;;;;;;;;4.80;35.00;;;2.85;35.85;100734.19;8273257;28;20008;-81
2022/04/02 05:00:57;;;;;;;;;;;4.80;35.70;;;2.88;35.54;100754.75;8277513;28;20011;-80
2022/04/02 05:05:20;;;;;;;;;;;4.80;35.50;;;2.83;35.49;100741.13;8272531;28;20016;-80
2022/04/02 05:09:45;;;;;;;;;;;4.90;35.20;;;2.94;35.72;100758.91;8271437;28;20012;-82
2022/04/02 05:14:09;;;;;;;;;;;4.80;35.10;;;2.87;35.72;100753.06;8255215;28;20003;-82
2022/04/02 05:18:33;;;;;;;;;;;4.90;36.30;;;2.76;35.88;100734.44;8266581;28;19924;-82
2022/04/02 05:22:55;;;;;;;;;;;4.80;35.60;;;3.00;35.85;100782.00;8267908;28;20283;-82
2022/04/02 05:27:17;;;;;;;;;;;4.90;35.90;;;3.04;35.85;100788.78;8297156;28;19917;-82
2022/04/02 05:31:41;;;;;;;;;;;5.00;35.40;;;2.98;35.87;100776.88;8293351;28;20016;-82
2022/04/02 05:36:03;;;;;;;;;;;4.90;35.30;;;3.02;35.92;100783.66;8268163;28;19917;-82
2022/04/02 05:40:25;;;;;;;;;;;5.00;35.80;;;3.14;36.19;100802.34;8268223;28;20032;-82
2022/04/02 05:44:47;;;;;;;;;;;4.90;35.70;;;3.20;36.15;100800.44;8254571;28;20013;-84
2022/04/02 05:49:08;;;;;;;;;;;5.00;35.80;;;3.21;36.11;100803.88;8274521;28;19917;-84
2022/04/02 05:53:30;;;;;;;;;;;5.10;36.30;;;3.09;36.14;100780.06;8293158;28;19917;-82
2022/04/02 05:57:52;;;;;;;;;;;5.20;35.80;;;3.30;36.06;100812.25;8281473;28;20000;-83
2022/04/02 06:02:13;;;;;;;;;;;5.20;36.20;;;3.24;36.32;100791.75;8265942;28;20403;-79
2022/04/02 06:06:36;;;;;;;;;;;5.30;36.60;;;3.48;36.07;100828.16;8257205;28;19922;-80
2022/04/02 06:10:58;;;;;;;;;;;5.30;36.20;;;3.44;36.23;100811.91;8257222;28;20557;-81
2022/04/02 06:15:20;;;;;;;;;;;5.50;36.90;;;3.68;36.28;100838.03;8268299;28;20325;-77
2022/04/02 06:19:41;;;;;;;;;;;5.50;37.20;;;3.60;36.67;100817.56;8279499;28;20268;-79
2022/04/02 06:24:06;;;;;;;;;;;5.50;36.70;;;3.65;36.13;100814.88;8279657;28;20426;-79
2022/04/02 06:28:27;;;;;;;;;;;5.70;36.70;;;3.79;36.24;100835.16;8260548;28;20358;-80
2022/04/02 06:32:49;;;;;;;;;;;5.80;37.30;;;3.90;36.28;100849.50;8281424;28;20004;-81
2022/04/02 06:37:11;;;;;;;;;;;5.80;36.70;;;3.79;36.41;100812.75;8262343;28;20005;-80
2022/04/02 06:41:33;;;;;;;;;;;5.70;37.30;;;3.98;36.42;100852.72;8282406;28;20017;-77
2022/04/02 06:45:55;;;;;;;;;;;5.90;37.20;;;3.89;36.33;100823.69;8292750;28;20461;-80
2022/04/02 06:50:17;;;;;;;;;;;6.00;36.50;;;4.11;36.54;100849.84;8284010;28;19918;-79
2022/04/02 06:54:39;;;;;;;;;;;6.00;36.80;;;4.21;36.53;100853.84;8278895;28;20388;-81
2022/04/02 06:59:01;;;;;;;;;;;6.10;36.50;;;4.14;36.91;100834.25;8269512;28;20002;-80
2022/04/02 07:03:23;;;;;;;;;;;6.10;35.80;;;4.32;36.71;100848.38;8277724;28;19943;-79
2022/04/02 07:07:46;;;;;;;;;;;6.30;36.70;;;4.42;36.79;100853.25;8261360;28;20008;-81
2022/04/02 07:12:08;;;;;;;;;;;6.40;37.20;;;4.56;36.74;100859.78;8263646;28;20008;-83
2022/04/02 07:16:30;;;;;;;;;;;6.40;36.90;;;4.60;36.99;100854.50;8269461;28;20004;-82
2022/04/02 07:20:53;;;;;;;;;;;6.50;37.60;;;4.73;36.79;100860.19;8265382;28;20010;-79
2022/04/02 07:25:16;;;;;;;;;;;6.60;38.00;;;4.90;36.81;100861.41;8289336;28;20021;-81
2022/04/02 07:29:40;;;;;;;;;;;6.70;36.70;;;4.92;36.90;100841.53;8285059;28;20019;-81
2022/04/02 07:34:05;;;;;;;;;;;6.80;38.00;;;5.06;37.12;100858.31;8263606;28;20004;-82
2022/04/02 07:38:50;;;;;;;;;;;6.90;36.90;;;5.13;37.25;100830.53;8253034;28;20025;-82
2022/04/02 07:43:53;;;;;;;;;;;7.10;36.70;;;5.56;37.52;100870.56;8262410;28;20034;-83
2022/04/02 07:48:17;;;;;;;;;;;7.30;35.80;;;5.73;37.45;100867.47;8268088;28;20509;-86
2022/04/02 07:52:50;;;;;;;;;;;7.30;36.10;;;5.81;37.52;100846.47;8273828;28;20004;-83
2022/04/02 07:57:14;;;;;;;;;;;7.70;35.90;;;6.06;36.96;100864.66;8265379;28;20374;-83
2022/04/02 08:01:44;;;;;;;;;;;7.90;35.10;;;6.26;37.33;100900.25;8268926;28;19929;-85
2022/04/02 08:06:05;;;;;;;;;;;7.90;34.40;;;6.22;36.66;100867.56;8269175;28;19917;-86
2022/04/02 08:10:28;;;;;;;;;;;8.00;33.90;;;6.35;36.59;100868.84;8265808;28;20359;-86
2022/04/02 08:14:52;;;;;;;;;;;8.20;34.10;;;6.41;37.08;100858.25;8267247;28;21845;-84
2022/04/02 08:19:19;;;;;;;;;;;8.30;34.30;;;6.49;36.89;100864.00;8263632;28;20412;-88
2022/04/02 08:23:41;;;;;;;;;;;8.30;34.00;;;6.68;36.82;100874.56;8268115;28;19931;-87
2022/04/02 08:28:07;;;;;;;;;;;8.50;33.90;;;6.76;36.60;100869.94;8266958;28;19996;-84
2022/04/02 08:33:10;;;;;;;;;;;8.60;33.40;;;6.69;36.47;100858.06;8294439;28;20338;-83
2022/04/02 08:37:47;;;;;;;;;;;8.70;33.10;;;6.89;36.42;100883.31;8271130;28;20389;-85
2022/04/02 08:42:31;;;;;;;;;;;8.80;33.10;;;7.07;36.57;100895.59;8267356;28;19929;-86
2022/04/02 08:47:05;;;;;;;;;;;8.90;33.50;;;7.27;36.38;100897.41;8289742;28;19918;-84
2022/04/02 08:51:41;;;;;;;;;;;9.00;33.70;;;7.47;36.36;100895.78;8290126;28;19928;-83
2022/04/02 08:56:05;;;;;;;;;;;9.10;33.80;;;7.48;36.51;100874.97;8279688;28;19917;-84
2022/04/02 09:00:27;;;;;;;;;;;9.30;33.70;;;7.50;36.29;100877.47;8270431;28;19996;-84
2022/04/02 09:05:08;;;;;;;;;;;9.40;33.50;;;7.59;36.57;100886.66;8249668;28;19928;-84
2022/04/02 09:10:14;;;;;;;;;;;9.40;33.40;;;7.66;36.20;100903.69;8267964;28;19927;-83
2022/04/02 09:14:59;;;;;;;;;;;9.50;33.20;;;7.67;36.47;100907.97;8094787;29;19926;-83
2022/04/02 09:19:47;;;;;;;;;;;9.50;33.20;;;7.63;36.08;100903.81;8240467;28;19917;-84
2022/04/02 09:24:37;;;;;;;;;;;9.50;33.10;;;7.69;36.07;100909.59;8259212;28;19947;-84
2022/04/02 09:29:24;;;;;;;;;;;9.50;32.80;;;7.69;36.04;100908.78;8265885;28;20015;-85
2022/04/02 09:34:17;;;;;;;;;;;9.50;32.50;;;7.66;35.92;100906.28;8287068;28;20486;-84
2022/04/02 09:39:22;;;;;;;;;;;9.50;32.40;;;7.65;36.08;100900.25;8288151;28;19927;-84
2022/04/02 09:43:58;;;;;;;;;;;9.50;32.40;;;7.53;36.18;100870.44;8249533;28;19934;-84
2022/04/02 09:48:24;;;;;;;;;;;9.50;32.50;;;7.73;36.16;100895.59;8295329;28;20015;-83
2022/04/02 09:52:53;;;;;;;;;;;9.90;32.70;;;7.82;35.64;100893.53;8284681;28;19980;-89
2022/04/02 09:57:40;;;;;;;;;;;9.60;32.20;;;7.84;35.91;100910.75;8294039;28;20446;-86
2022/04/02 10:02:04;;;;;;;;;;;9.70;32.20;;;7.79;36.13;100894.50;8286243;28;20338;-87
2022/04/02 10:06:27;;;;;;;;;;;9.60;32.20;;;7.78;35.90;100890.22;8277443;28;20460;-88
2022/04/02 10:10:50;;;;;;;;;;;9.60;32.00;;;7.87;35.90;100904.59;8255560;28;20430;-86
2022/04/02 10:15:14;;;;;;;;;;;9.70;31.80;;;7.69;35.65;100861.97;8257193;28;20040;-84
2022/04/02 10:19:40;;;;;;;;;;;9.70;32.10;;;7.86;35.84;100888.16;8272798;28;20008;-84
2022/04/02 10:24:19;;;;;;;;;;;9.70;31.90;;;7.95;35.91;100898.16;8276083;28;19969;-84
2022/04/02 10:28:50;;;;;;;;;;;9.70;31.60;;;7.93;35.63;100902.56;8259240;28;19927;-89
2022/04/02 10:33:26;;;;;;;;;;;9.80;32.40;;;7.83;35.47;100880.47;8273870;28;19932;-82
2022/04/02 10:38:05;;;;;;;;;;;9.80;31.70;;;7.83;35.32;100869.22;8276160;28;19930;-86
2022/04/02 10:42:34;;;;;;;;;;;9.70;32.00;;;8.03;35.64;100879.63;8245793;28;19936;-85
2022/04/02 10:46:58;;;;;;;;;;;9.80;32.10;;;8.17;35.66;100895.50;8240105;28;19922;-87
2022/04/02 10:51:30;;;;;;;;;;;9.90;32.00;;;8.23;35.30;100899.59;8261209;28;19927;-85
2022/04/02 10:56:00;;;;;;;;;;;10.00;31.40;;;7.86;35.28;100832.72;8234363;28;19964;-87
2022/04/02 11:00:26;;;;;;;;;;;10.00;31.50;;;7.69;35.06;100800.44;8267026;28;19927;-85
2022/04/02 11:05:06;;;;;;;;;;;10.10;31.70;;;8.41;35.36;100879.78;8247833;28;20416;-84
2022/04/02 11:09:41;;;;;;;;;;;10.10;31.90;;;8.54;35.43;100870.53;8239033;28;19981;-86
2022/04/02 11:14:03;;;;;;;;;;;10.30;31.50;;;8.63;35.37;100864.06;8252703;28;20394;-83
2022/04/02 11:18:25;;;;;;;;;;;10.40;30.90;;;8.33;34.97;100819.41;8239931;28;20431;-89
2022/04/02 11:22:52;;;;;;;;;;;10.50;30.90;;;8.79;35.26;100898.91;8248832;28;19925;-84
2022/04/02 11:27:16;;;;;;;;;;;10.60;31.50;;;8.72;35.09;100886.22;8251313;28;19921;-84
2022/04/02 11:31:40;;;;;;;;;;;10.60;31.50;;;8.65;35.18;100877.84;8294136;28;19929;-84
2022/04/02 11:36:06;;;;;;;;;;;10.60;31.10;;;8.66;35.08;100887.34;8259365;28;19928;-82
2022/04/02 11:40:29;;;;;;;;;;;10.50;30.30;;;8.55;34.54;100872.19;8279005;28;20482;-86
2022/04/02 11:44:52;;;;;;;;;;;10.50;31.10;;;8.55;35.03;100864.38;8255539;28;19926;-83
2022/04/02 11:49:24;;;;;;;;;;;10.40;31.00;;;8.71;35.28;100874.97;8276095;28;19952;-85
2022/04/02 11:53:46;;;;;;;;;;;10.50;31.40;;;8.80;35.04;100882.38;8260605;28;19921;-84
2022/04/02 11:58:10;;;;;;;;;;;10.60;31.40;;;8.54;35.01;100838.44;8259449;28;19921;-84
2022/04/02 12:02:35;;;;;;;;;;;10.50;30.90;;;8.81;34.98;100875.41;8300116;28;20324;-84
2022/04/02 12:07:06;;;;;;;;;;;10.60;31.10;;;8.83;34.86;100879.63;8278639;28;19930;-83
2022/04/02 12:11:28;;;;;;;;;;;10.60;31.20;;;8.75;35.02;100884.34;8254470;28;19917;-85
2022/04/02 12:16:09;;;;;;;;;;;10.50;31.50;;;8.83;35.01;100897.84;8243129;28;19928;-84
2022/04/02 12:20:37;;;;;;;;;;;10.60;32.00;;;8.73;35.00;100888.78;8258193;28;19921;-85
2022/04/02 12:25:02;;;;;;;;;;;10.60;32.20;;;8.78;34.80;100917.22;8257886;28;20289;-86
2022/04/02 12:29:23;;;;;;;;;;;10.40;32.40;;;8.54;35.07;100887.91;8266724;28;19921;-82
2022/04/02 12:33:52;;;;;;;;;;;10.50;32.50;;;8.59;35.42;100902.41;8267633;28;19948;-82
2022/04/02 12:38:34;;;;;;;;;;;10.40;32.60;;;8.40;35.45;100885.91;8270397;28;20390;-81
2022/04/02 12:43:02;;;;;;;;;;;10.20;32.70;;;8.56;35.25;100909.47;8272553;28;19932;-88
2022/04/02 12:47:25;;;;;;;;;;;10.30;32.90;;;8.45;35.56;100909.94;8265494;28;19928;-79
2022/04/02 12:52:08;;;;;;;;;;;10.20;33.30;;;8.45;35.66;100915.16;8264641;28;19921;-82
2022/04/02 12:56:32;;;;;;;;;;;10.50;33.00;;;8.39;35.39;100903.25;8254062;28;19928;-82
2022/04/02 13:00:54;;;;;;;;;;;10.20;32.30;;;8.48;35.73;100916.78;8270475;28;19921;-82
2022/04/02 13:05:16;;;;;;;;;;;10.20;32.40;;;8.53;35.56;100917.44;8275524;28;20317;-85
2022/04/02 13:09:40;;;;;;;;;;;10.20;32.50;;;8.48;35.31;100908.97;8262308;28;19943;-82
2022/04/02 13:14:04;;;;;;;;;;;10.20;32.20;;;8.37;35.53;100912.00;8263890;28;19928;-83
2022/04/02 13:23:25;;;;;;;;;;;10.20;31.90;;;8.43;35.24;100927.41;8275270;28;19925;-84
2022/04/02 13:28:05;;;;;;;;;;;10.00;31.90;;;8.47;35.13;100933.31;8257868;28;19929;-83
2022/04/02 13:32:51;;;;;;;;;;;10.20;32.40;;;8.51;35.50;100953.94;8274111;28;19922;-83
2022/04/02 13:37:26;;;;;;;;;;;10.20;33.00;;;8.23;35.49;100920.41;8277321;28;20448;-83
2022/04/02 13:41:52;;;;;;;;;;;10.10;32.80;;;8.19;35.13;100924.91;8272744;28;20410;-83
2022/04/02 13:46:15;;;;;;;;;;;10.10;33.10;;;8.18;35.51;100948.34;8279963;28;20399;-83
2022/04/02 13:50:54;;;;;;;;;;;10.10;32.10;;;7.82;35.23;100902.16;8275489;28;19922;-83
2022/04/02 13:55:17;;;;;;;;;;;9.90;32.20;;;8.06;35.62;100946.28;8260172;28;20382;-83
2022/04/02 14:00:03;;;;;;;;;;;9.90;32.40;;;8.02;34.99;100944.69;8256347;28;19926;-83
2022/04/02 14:04:36;;;;;;;;;;;9.90;32.30;;;8.07;35.43;100937.56;8251457;28;20792;-83
2022/04/02 14:08:58;;;;;;;;;;;9.90;32.50;;;8.08;35.45;100962.69;8260129;28;19943;-83
2022/04/02 14:13:27;;;;;;;;;;;9.80;32.50;;;7.97;35.29;100953.56;8253032;28;19932;-83
2022/04/02 14:17:53;;;;;;;;;;;9.80;32.70;;;7.96;35.21;100966.59;8268463;28;20410;-84
2022/04/02 14:22:19;;;;;;;;;;;9.70;32.50;;;7.98;35.58;100988.19;8268848;28;20386;-83
2022/04/02 14:27:07;;;;;;;;;;;9.70;32.80;;;7.83;35.28;100953.28;8271375;28;19925;-84
2022/04/02 14:31:51;;;;;;;;;;;9.70;32.80;;;7.85;35.17;100956.63;8283117;28;20400;-83
2022/04/02 14:36:38;;;;;;;;;;;9.70;32.90;;;7.93;35.61;100980.56;8267368;28;19948;-83
2022/04/02 14:41:19;;;;;;;;;;;9.70;32.70;;;7.88;35.42;100968.66;8277988;28;20378;-84
2022/04/02 14:46:09;;;;;;;;;;;9.70;32.50;;;8.02;35.34;100994.13;8265709;28;19925;-83
2022/04/02 14:51:15;;;;;;;;;;;9.70;32.30;;;7.90;35.44;100979.84;8285923;28;19921;-83
2022/04/02 14:56:16;;;;;;;;;;;9.70;32.40;;;7.95;35.53;101003.94;8262708;28;19922;-85
2022/04/02 15:00:59;;;;;;;;;;;9.70;32.60;;;7.90;35.33;101006.69;8286394;28;20648;-84
2022/04/02 15:05:43;;;;;;;;;;;9.60;33.00;;;7.78;35.19;101017.59;8272744;28;19940;-83
2022/04/02 15:10:08;;;;;;;;;;;9.60;32.80;;;7.73;35.55;101014.31;8240660;28;19928;-83
2022/04/02 15:14:30;;;;;;;;;;;9.50;33.20;;;7.43;35.34;100996.41;8271505;28;19925;-85
2022/04/02 15:18:52;;;;;;;;;;;9.40;33.40;;;7.31;35.67;100999.44;8268796;28;19921;-84
2022/04/02 15:23:18;;;;;;;;;;;9.20;33.40;;;7.43;35.72;101030.19;8243362;28;20408;-83
2022/04/02 15:27:51;;;;;;;;;;;9.20;33.90;;;7.27;35.49;101010.88;8270031;28;20294;-83
2022/04/02 15:32:19;;;;;;;;;;;9.10;33.40;;;7.23;35.43;101017.06;8256612;28;19955;-83
2022/04/02 15:37:07;;;;;;;;;;;9.10;33.80;;;7.26;35.95;101014.34;8267565;28;19928;-82
2022/04/02 15:41:48;;;;;;;;;;;9.10;34.00;;;7.24;36.03;101018.78;8276743;28;20488;-84
2022/04/02 15:46:22;;;;;;;;;;;9.00;33.90;;;7.34;36.02;101048.69;8282810;28;19933;-83
2022/04/02 15:50:44;;;;;;;;;;;9.00;33.90;;;7.20;36.07;101025.81;8287852;28;20283;-83
2022/04/02 15:55:18;;;;;;;;;;;9.00;34.00;;;7.17;35.93;101028.53;8269354;28;19925;-83
2022/04/02 16:00:01;;;;;;;;;;;9.00;34.10;;;7.19;36.02;101050.09;8272133;28;19936;-84
2022/04/02 16:04:23;;;;;;;;;;;9.00;34.10;;;7.26;36.00;101063.69;8268462;28;19925;-83
2022/04/02 16:08:54;;;;;;;;;;;9.00;33.80;;;7.20;35.60;101066.53;8258689;28;20414;-83
2022/04/02 16:13:26;;;;;;;;;;;8.90;34.10;;;7.05;36.19;101058.38;8253341;28;20009;-84
2022/04/02 16:18:18;;;;;;;;;;;8.90;33.90;;;7.13;36.14;101068.50;8265808;28;19928;-83
2022/04/02 16:22:44;;;;;;;;;;;8.90;33.70;;;6.98;36.01;101069.03;8264461;28;19935;-87
2022/04/02 16:27:08;;;;;;;;;;;8.80;34.40;;;7.03;35.88;101074.91;8242580;28;20345;-83
2022/04/02 16:31:36;;;;;;;;;;;8.60;34.10;;;6.88;36.34;101068.50;8272494;28;20407;-84
2022/04/02 16:36:07;;;;;;;;;;;8.80;34.70;;;6.89;36.04;101088.38;8259491;28;19928;-83
2022/04/02 16:40:29;;;;;;;;;;;8.70;34.20;;;6.82;36.37;101094.66;8283168;28;20297;-83
2022/04/02 16:44:56;;;;;;;;;;;8.60;34.40;;;6.65;36.66;101071.88;8260150;28;20336;-83
2022/04/02 16:49:19;;;;;;;;;;;8.60;34.50;;;6.77;36.51;101104.34;8269464;28;19928;-82
2022/04/02 16:53:41;;;;;;;;;;;8.20;34.20;;;6.72;36.06;101114.88;8276669;28;19931;-82
2022/04/02 16:58:03;;;;;;;;;;;8.50;34.90;;;6.69;36.35;101117.56;8260110;28;19928;-84
2022/04/02 17:02:52;;;;;;;;;;;8.40;34.80;;;6.64;36.28;101117.75;8247655;28;20009;-82
2022/04/02 17:07:14;;;;;;;;;;;8.40;34.40;;;6.69;36.20;101121.91;8285510;28;19925;-83
2022/04/02 17:11:45;;;;;;;;;;;8.40;35.00;;;6.52;36.16;101118.13;8268491;28;20803;-84
2022/04/02 17:16:07;;;;;;;;;;;8.40;34.50;;;6.58;36.20;101136.09;8276568;28;19928;-82
2022/04/02 17:20:30;;;;;;;;;;;8.40;34.60;;;6.57;36.41;101139.59;8272507;28;19935;-83
2022/04/02 17:25:03;;;;;;;;;;;8.30;34.40;;;6.41;36.69;101128.84;8282180;28;19925;-83
2022/04/02 17:29:26;;;;;;;;;;;8.30;34.30;;;6.36;36.13;101135.91;8280135;28;19925;-83
2022/04/02 17:33:48;;;;;;;;;;;8.30;34.60;;;6.45;36.33;101163.31;8271175;28;19921;-83
2022/04/02 17:38:17;;;;;;;;;;;8.20;34.50;;;6.42;36.50;101166.00;8256971;28;20016;-81
2022/04/02 17:42:51;;;;;;;;;;;8.20;34.40;;;6.33;36.56;101171.50;8270418;28;20396;-83
2022/04/02 17:47:12;;;;;;;;;;;8.20;34.50;;;6.33;36.52;101189.66;8258353;28;19928;-83
2022/04/02 17:51:39;;;;;;;;;;;8.10;34.20;;;6.26;36.54;101180.34;8272048;28;19921;-82
2022/04/02 17:56:14;;;;;;;;;;;8.10;34.30;;;6.27;36.33;101197.63;8272446;28;19928;-83
2022/04/02 18:00:38;;;;;;;;;;;8.00;34.80;;;6.23;36.42;101206.38;8274492;28;19955;-87
2022/04/02 18:05:01;;;;;;;;;;;8.00;34.10;;;6.19;36.82;101210.81;8251715;28;19929;-83
2022/04/02 18:09:26;;;;;;;;;;;8.00;34.30;;;6.14;36.49;101208.34;8257517;28;19928;-85
2022/04/02 18:13:50;;;;;;;;;;;8.00;34.20;;;6.14;36.48;101218.69;8232096;28;19921;-87
2022/04/02 18:18:11;;;;;;;;;;;7.80;34.20;;;6.13;36.47;101219.59;8236287;28;19925;-86
2022/04/02 18:22:33;;;;;;;;;;;7.70;34.50;;;5.91;36.50;101203.78;8261206;28;19921;-85
2022/04/02 18:26:54;;;;;;;;;;;7.70;34.30;;;5.98;36.29;101233.00;8268809;28;20391;-84
2022/04/02 18:31:17;;;;;;;;;;;7.80;33.90;;;5.96;36.46;101229.59;8261859;28;19927;-84
2022/04/02 18:35:38;;;;;;;;;;;7.70;34.00;;;5.96;36.33;101232.19;8261144;28;20495;-84
2022/04/02 18:40:00;;;;;;;;;;;7.80;33.90;;;6.04;36.26;101258.75;8257530;28;19947;-83
2022/04/02 18:44:22;;;;;;;;;;;7.70;34.00;;;5.86;36.34;101243.66;8246940;28;19925;-83
2022/04/02 18:48:45;;;;;;;;;;;7.80;33.90;;;5.86;36.03;101248.84;8260155;28;19921;-84
2022/04/02 18:53:08;;;;;;;;;;;7.70;34.10;;;5.80;36.30;101260.22;8275741;28;20391;-84
2022/04/02 18:57:30;;;;;;;;;;;7.70;33.90;;;5.79;36.44;101274.09;8252585;28;19922;-83
2022/04/02 19:01:51;;;;;;;;;;;7.60;33.80;;;5.71;36.28;101265.66;8258983;28;20333;-83
2022/04/02 19:06:13;;;;;;;;;;;7.60;33.90;;;5.60;36.52;101262.50;8268952;28;20480;-84
2022/04/02 19:10:35;;;;;;;;;;;7.50;33.80;;;5.76;36.10;101300.94;8273528;28;20267;-84
2022/04/02 19:15:00;;;;;;;;;;;7.50;34.00;;;5.20;36.51;101217.75;8261668;28;20429;-84
2022/04/02 19:19:22;;;;;;;;;;;7.50;33.80;;;4.88;36.35;101177.97;8260983;28;19925;-83
2022/04/02 19:23:48;;;;;;;;;;;7.40;33.80;;;5.65;35.83;101315.06;8256706;28;19933;-85
2022/04/02 19:28:10;;;;;;;;;;;7.40;33.90;;;5.53;36.38;101323.97;8259155;28;20271;-84
2022/04/02 19:32:36;;;;;;;;;;;7.30;33.80;;;5.01;36.13;101232.03;8252142;28;19937;-84
2022/04/02 19:36:59;;;;;;;;;;;7.30;33.80;;;4.92;36.33;101229.66;8268666;28;19928;-84
2022/04/02 19:41:23;;;;;;;;;;;7.10;33.70;;;5.37;36.40;101310.53;8263395;28;19932;-84
2022/04/02 19:45:45;;;;;;;;;;;7.20;33.80;;;5.32;36.05;101309.81;8241971;28;19932;-84
2022/04/02 19:50:07;;;;;;;;;;;7.10;33.70;;;5.38;36.15;101335.56;8260329;28;19948;-83
2022/04/02 19:54:30;;;;;;;;;;;7.10;33.60;;;5.23;36.27;101317.78;8271922;28;19935;-84
2022/04/02 19:58:52;;;;;;;;;;;7.30;33.70;;;5.26;36.07;101336.69;8258056;28;19925;-84
2022/04/02 20:03:13;;;;;;;;;;;7.00;34.00;;;5.13;36.32;101330.13;8267059;28;19932;-84
2022/04/02 20:07:35;;;;;;;;;;;7.00;33.60;;;5.17;36.25;101347.25;8273164;28;19928;-84
2022/04/02 20:11:57;;;;;;;;;;;6.80;33.50;;;5.04;36.34;101327.72;8258246;28;19927;-84
2022/04/02 20:16:19;;;;;;;;;;;6.90;33.50;;;4.92;36.40;101322.84;8269398;28;19928;-83
2022/04/02 20:20:41;;;;;;;;;;;6.90;33.60;;;5.00;36.40;101341.63;8257861;28;20333;-84
2022/04/02 20:25:02;;;;;;;;;;;6.80;33.70;;;4.81;36.39;101318.75;8272763;28;19929;-84
2022/04/02 20:29:25;;;;;;;;;;;6.80;33.60;;;4.94;36.47;101344.31;8271080;28;19929;-84
2022/04/02 20:33:46;;;;;;;;;;;6.70;33.60;;;4.99;35.96;101369.22;8280350;28;19921;-84
2022/04/02 20:38:08;;;;;;;;;;;6.70;33.60;;;4.75;36.46;101334.41;8271120;28;20302;-84
2022/04/02 20:42:30;;;;;;;;;;;6.70;33.60;;;4.41;36.53;101279.94;8272908;28;19922;-85
2022/04/02 20:46:52;;;;;;;;;;;6.50;33.60;;;4.81;36.41;101348.94;8260567;28;19931;-84
2022/04/02 20:51:14;;;;;;;;;;;6.60;33.50;;;4.77;36.15;101348.13;8264199;28;19921;-84
2022/04/02 20:55:36;;;;;;;;;;;6.60;33.60;;;4.65;36.09;101338.06;8258057;28;19925;-84